• Join FlightAware (Why Join?)
  • Login
  • US Flag 
05:15AM EDT


 

Airport Tracker/Info


-or-


 

Live Flight TrackerFlight Track Log ✈ FLG3969 ✈ 22-Jul-2013 ✈ KJFK - KBWI

Flight Track Log - Related Links

Times and Time Zones

All times are in EDT time to prevent confusion due to time zone crossing. See the FLG3969 flight status page for this flight to view local times or setup timezone preferences in your user account.

Time Position Orientation Groundspeed Altitude Reporting Facility
EDT Latitude Longitude Course Direction KTS MPH feet Rate Location/Type
02:50PM 40.6500 -73.7333 209° Southwest 174 200 1,700  Level New York TRACON
02:52PM 40.4215 -73.9302 209° Southwest  Level FlightAware Approximate
02:52PM 40.6000 -73.7167 166° South 254 292 5,400  Level New York TRACON
02:53PM 40.3492 -73.9819 209° Southwest  Level FlightAware Approximate
02:53PM 40.5667 -73.8000 242° Southwest 281 323 6,000  Level New York TRACON
02:54PM 40.2769 -74.0334 209° Southwest  Level FlightAware Approximate
02:54PM 40.5000 -73.8667 217° Southwest 271 312 7,700  Level New York TRACON
02:55PM 40.2046 -74.0849 209° Southwest  Level FlightAware Approximate
02:55PM 40.4500 -73.9167 217° Southwest 276 318 8,000  Level New York TRACON
02:57PM 40.3480 -73.9870 208° Southwest  Level FlightAware Approximate
03:04PM 39.8717 -74.3668 215° Southwest  Level FlightAware Approximate
03:05PM 39.8057 -74.4265 214° Southwest  Level FlightAware Approximate
03:06PM 39.7393 -74.4855 214° Southwest  Level FlightAware Approximate
03:07PM 39.6730 -74.5444 214° Southwest  Level FlightAware Approximate
03:08PM 39.6091 -74.6076 218° Southwest  Level FlightAware Approximate
03:09PM 39.5454 -74.6713 218° Southwest  Level FlightAware Approximate
03:09PM 39.5556 -74.6575 203° Southwest 264 304 5,900  Level Washington Center
03:10PM 39.4814 -74.7341 216° Southwest  Level FlightAware Approximate
03:11PM 39.4162 -74.7951 216° Southwest  Level FlightAware Approximate
03:11PM 39.4868 -74.7290 216° Southwest  Level FlightAware Approximate
03:12PM 39.3511 -74.8559 216° Southwest  Level FlightAware Approximate
03:13PM 39.2859 -74.9166 216° Southwest  Level FlightAware Approximate
03:14PM 39.2166 -74.9680 203° Southwest  Level FlightAware Approximate
03:15PM 39.1425 -75.0080 203° Southwest  Level FlightAware Approximate
03:18PM 39.0032 -75.0906 203° Southwest  Level FlightAware Approximate
03:19PM 38.9291 -75.1306 203° Southwest  Level FlightAware Approximate
03:20PM 38.8550 -75.1704 203° Southwest  Level FlightAware Approximate
03:21PM 38.7986 -75.2265 266° West  Level FlightAware Approximate
03:22PM 38.7929 -75.3294 266° West  Level FlightAware Approximate
03:22PM 39.0167 -75.6000 265° West 267 307 6,000  Level Potomac TRACON
03:23PM 38.7872 -75.4322 266° West  Level FlightAware Approximate
03:23PM 39.0000 -75.6833 256° West 268 308 6,000  Level Potomac TRACON
03:24PM 38.7807 -75.5350 264° West  Level FlightAware Approximate
03:24PM 38.9833 -75.7833 258° West 267 307 6,000  Level Potomac TRACON
03:25PM 38.7728 -75.6376 264° West  Level FlightAware Approximate
03:25PM 38.9833 -75.8667 270° West 273 314 6,000  Level Potomac TRACON
03:26PM 38.7650 -75.7401 265° West  Level FlightAware Approximate
03:26PM 38.9833 -75.9667 270° West 273 314 6,000  Level Potomac TRACON
03:27PM 38.7577 -75.8428 265° West  Level FlightAware Approximate
03:27PM 38.9667 -76.0500 256° West 266 306 6,000  Level Potomac TRACON
03:28PM 38.9667 -76.1500 270° West 268 308 5,800 -540 Descending Potomac TRACON
03:29PM 38.9500 -76.2333 256° West 263 303 5,000 -420 Descending Potomac TRACON
03:30PM 38.9500 -76.3333 270° West 272 313 5,000  Level Potomac TRACON
03:31PM 38.9667 -76.4333 282° West 270 311 5,000 -480 Level Potomac TRACON
03:32PM 38.9833 -76.5333 282° West 268 308 4,000 -540 Descending Potomac TRACON
03:33PM 39.0167 -76.6000 303° West 269 310 4,000 -480 Level Potomac TRACON
03:34PM 39.0500 -76.7000 293° West 259 298 3,100 -540 Descending Potomac TRACON
03:35PM 39.0667 -76.7833 284° West 267 307 2,900 -240 Descending Potomac TRACON